sensor_id;sensor_type;location;lat;lon;timestamp;P1;durP1;ratioP1;P2;durP2;ratioP2
33006;SDS011;19361;51.598;7.650;2023-07-29T00:00:35;2.97;;;1.73;;
33006;SDS011;19361;51.598;7.650;2023-07-29T00:05:56;2.53;;;1.85;;
33006;SDS011;19361;51.598;7.650;2023-07-29T00:11:17;1.90;;;1.70;;
33006;SDS011;19361;51.598;7.650;2023-07-29T00:16:38;7.15;;;6.65;;
33006;SDS011;19361;51.598;7.650;2023-07-29T00:21:59;11.02;;;9.50;;
33006;SDS011;19361;51.598;7.650;2023-07-29T00:27:20;9.52;;;8.73;;
33006;SDS011;19361;51.598;7.650;2023-07-29T00:32:41;13.13;;;10.65;;
33006;SDS011;19361;51.598;7.650;2023-07-29T00:38:03;14.43;;;12.93;;
33006;SDS011;19361;51.598;7.650;2023-07-29T00:43:24;16.48;;;14.98;;
33006;SDS011;19361;51.598;7.650;2023-07-29T00:48:45;12.75;;;11.50;;
33006;SDS011;19361;51.598;7.650;2023-07-29T00:54:06;12.90;;;11.80;;
33006;SDS011;19361;51.598;7.650;2023-07-29T00:59:27;15.02;;;13.82;;
33006;SDS011;19361;51.598;7.650;2023-07-29T01:04:53;15.98;;;14.52;;
33006;SDS011;19361;51.598;7.650;2023-07-29T01:10:23;16.27;;;14.80;;
33006;SDS011;19361;51.598;7.650;2023-07-29T01:16:01;15.50;;;14.10;;
33006;SDS011;19361;51.598;7.650;2023-07-29T01:21:51;18.63;;;16.90;;
33006;SDS011;19361;51.598;7.650;2023-07-29T01:27:12;18.27;;;16.63;;
33006;SDS011;19361;51.598;7.650;2023-07-29T01:32:35;23.77;;;21.52;;
33006;SDS011;19361;51.598;7.650;2023-07-29T01:38:18;24.55;;;22.05;;
33006;SDS011;19361;51.598;7.650;2023-07-29T01:43:45;12.97;;;11.83;;
33006;SDS011;19361;51.598;7.650;2023-07-29T01:49:07;7.35;;;5.85;;
33006;SDS011;19361;51.598;7.650;2023-07-29T01:54:28;3.55;;;3.25;;
33006;SDS011;19361;51.598;7.650;2023-07-29T01:59:49;4.57;;;2.40;;
33006;SDS011;19361;51.598;7.650;2023-07-29T02:05:10;2.22;;;2.03;;
33006;SDS011;19361;51.598;7.650;2023-07-29T02:10:31;2.65;;;2.45;;
33006;SDS011;19361;51.598;7.650;2023-07-29T02:15:52;2.72;;;2.35;;
33006;SDS011;19361;51.598;7.650;2023-07-29T02:21:13;4.10;;;1.80;;
33006;SDS011;19361;51.598;7.650;2023-07-29T02:26:34;3.58;;;1.80;;
33006;SDS011;19361;51.598;7.650;2023-07-29T02:31:55;2.00;;;1.90;;
33006;SDS011;19361;51.598;7.650;2023-07-29T02:37:16;1.73;;;1.63;;
33006;SDS011;19361;51.598;7.650;2023-07-29T02:42:37;1.70;;;1.60;;
33006;SDS011;19361;51.598;7.650;2023-07-29T02:47:58;2.65;;;1.67;;
33006;SDS011;19361;51.598;7.650;2023-07-29T02:53:19;3.53;;;1.92;;
33006;SDS011;19361;51.598;7.650;2023-07-29T02:58:42;2.65;;;1.70;;
33006;SDS011;19361;51.598;7.650;2023-07-29T03:04:04;1.50;;;1.40;;
33006;SDS011;19361;51.598;7.650;2023-07-29T03:09:26;1.67;;;1.58;;
33006;SDS011;19361;51.598;7.650;2023-07-29T03:14:47;1.92;;;1.80;;
33006;SDS011;19361;51.598;7.650;2023-07-29T03:20:09;2.13;;;1.70;;
33006;SDS011;19361;51.598;7.650;2023-07-29T03:25:30;1.88;;;1.48;;
33006;SDS011;19361;51.598;7.650;2023-07-29T03:30:51;1.50;;;1.40;;
33006;SDS011;19361;51.598;7.650;2023-07-29T03:36:12;1.45;;;1.35;;
33006;SDS011;19361;51.598;7.650;2023-07-29T03:41:34;4.93;;;1.55;;
33006;SDS011;19361;51.598;7.650;2023-07-29T03:46:55;2.13;;;1.58;;
33006;SDS011;19361;51.598;7.650;2023-07-29T03:52:16;1.45;;;1.35;;
33006;SDS011;19361;51.598;7.650;2023-07-29T03:57:37;3.90;;;1.50;;
33006;SDS011;19361;51.598;7.650;2023-07-29T04:02:58;1.55;;;1.38;;
33006;SDS011;19361;51.598;7.650;2023-07-29T04:08:19;1.48;;;1.38;;
33006;SDS011;19361;51.598;7.650;2023-07-29T04:13:40;1.83;;;1.55;;
33006;SDS011;19361;51.598;7.650;2023-07-29T04:19:01;2.00;;;1.77;;
33006;SDS011;19361;51.598;7.650;2023-07-29T04:24:23;4.53;;;1.50;;
33006;SDS011;19361;51.598;7.650;2023-07-29T04:29:44;6.00;;;1.77;;
33006;SDS011;19361;51.598;7.650;2023-07-29T04:35:05;2.28;;;1.83;;
33006;SDS011;19361;51.598;7.650;2023-07-29T04:40:27;1.88;;;1.70;;
33006;SDS011;19361;51.598;7.650;2023-07-29T04:45:48;3.60;;;1.88;;
33006;SDS011;19361;51.598;7.650;2023-07-29T04:51:09;3.75;;;2.17;;
33006;SDS011;19361;51.598;7.650;2023-07-29T04:56:30;2.42;;;2.22;;
33006;SDS011;19361;51.598;7.650;2023-07-29T05:01:51;2.55;;;2.13;;
33006;SDS011;19361;51.598;7.650;2023-07-29T05:07:12;2.85;;;2.50;;
33006;SDS011;19361;51.598;7.650;2023-07-29T05:12:33;5.35;;;5.05;;
33006;SDS011;19361;51.598;7.650;2023-07-29T05:17:54;6.28;;;5.85;;
33006;SDS011;19361;51.598;7.650;2023-07-29T05:23:15;3.75;;;2.40;;
33006;SDS011;19361;51.598;7.650;2023-07-29T05:28:36;6.38;;;2.20;;
33006;SDS011;19361;51.598;7.650;2023-07-29T05:33:57;2.60;;;2.40;;
33006;SDS011;19361;51.598;7.650;2023-07-29T05:39:19;4.07;;;2.97;;
33006;SDS011;19361;51.598;7.650;2023-07-29T05:44:40;5.75;;;3.13;;
33006;SDS011;19361;51.598;7.650;2023-07-29T05:50:01;4.40;;;3.45;;
33006;SDS011;19361;51.598;7.650;2023-07-29T05:55:24;3.88;;;3.33;;
33006;SDS011;19361;51.598;7.650;2023-07-29T06:00:45;3.97;;;2.88;;
33006;SDS011;19361;51.598;7.650;2023-07-29T06:06:07;3.25;;;2.95;;
33006;SDS011;19361;51.598;7.650;2023-07-29T06:11:28;3.30;;;3.00;;
33006;SDS011;19361;51.598;7.650;2023-07-29T06:16:49;9.00;;;3.22;;
33006;SDS011;19361;51.598;7.650;2023-07-29T06:22:10;4.53;;;4.20;;
33006;SDS011;19361;51.598;7.650;2023-07-29T06:27:32;9.68;;;5.45;;
33006;SDS011;19361;51.598;7.650;2023-07-29T06:32:53;5.50;;;5.05;;
33006;SDS011;19361;51.598;7.650;2023-07-29T06:38:15;5.60;;;5.05;;
33006;SDS011;19361;51.598;7.650;2023-07-29T06:43:39;5.88;;;5.47;;
33006;SDS011;19361;51.598;7.650;2023-07-29T06:49:00;5.50;;;5.13;;
33006;SDS011;19361;51.598;7.650;2023-07-29T06:54:25;5.55;;;5.15;;
33006;SDS011;19361;51.598;7.650;2023-07-29T06:59:46;5.57;;;5.07;;
33006;SDS011;19361;51.598;7.650;2023-07-29T07:05:08;4.40;;;3.97;;
33006;SDS011;19361;51.598;7.650;2023-07-29T07:10:29;3.58;;;3.25;;
33006;SDS011;19361;51.598;7.650;2023-07-29T07:15:50;4.90;;;3.20;;
33006;SDS011;19361;51.598;7.650;2023-07-29T07:21:11;3.35;;;3.05;;
33006;SDS011;19361;51.598;7.650;2023-07-29T07:26:32;2.60;;;2.40;;
33006;SDS011;19361;51.598;7.650;2023-07-29T07:31:53;2.60;;;2.20;;
33006;SDS011;19361;51.598;7.650;2023-07-29T07:37:15;2.33;;;2.15;;
33006;SDS011;19361;51.598;7.650;2023-07-29T07:42:36;3.90;;;3.05;;
33006;SDS011;19361;51.598;7.650;2023-07-29T07:47:57;3.10;;;2.90;;
33006;SDS011;19361;51.598;7.650;2023-07-29T07:53:19;3.05;;;2.53;;
33006;SDS011;19361;51.598;7.650;2023-07-29T07:58:40;3.30;;;2.40;;
33006;SDS011;19361;51.598;7.650;2023-07-29T08:04:01;3.47;;;1.90;;
33006;SDS011;19361;51.598;7.650;2023-07-29T08:09:23;3.35;;;1.77;;
33006;SDS011;19361;51.598;7.650;2023-07-29T08:14:45;3.70;;;2.05;;
33006;SDS011;19361;51.598;7.650;2023-07-29T08:20:06;2.17;;;1.40;;
33006;SDS011;19361;51.598;7.650;2023-07-29T08:25:28;1.52;;;1.17;;
33006;SDS011;19361;51.598;7.650;2023-07-29T08:30:49;1.80;;;1.20;;
33006;SDS011;19361;51.598;7.650;2023-07-29T08:36:11;1.67;;;1.55;;
33006;SDS011;19361;51.598;7.650;2023-07-29T08:41:37;1.65;;;1.20;;
33006;SDS011;19361;51.598;7.650;2023-07-29T08:47:08;1.40;;;1.30;;
33006;SDS011;19361;51.598;7.650;2023-07-29T08:52:30;1.88;;;1.38;;
33006;SDS011;19361;51.598;7.650;2023-07-29T08:57:55;1.20;;;1.10;;
33006;SDS011;19361;51.598;7.650;2023-07-29T09:03:19;1.35;;;1.25;;
33006;SDS011;19361;51.598;7.650;2023-07-29T09:08:41;2.05;;;1.38;;
33006;SDS011;19361;51.598;7.650;2023-07-29T09:14:04;1.63;;;1.40;;
33006;SDS011;19361;51.598;7.650;2023-07-29T09:19:25;1.80;;;1.30;;
33006;SDS011;19361;51.598;7.650;2023-07-29T09:24:47;1.50;;;1.40;;
33006;SDS011;19361;51.598;7.650;2023-07-29T09:30:15;2.78;;;1.50;;
33006;SDS011;19361;51.598;7.650;2023-07-29T09:35:37;1.80;;;1.33;;
33006;SDS011;19361;51.598;7.650;2023-07-29T09:40:59;1.67;;;1.58;;
33006;SDS011;19361;51.598;7.650;2023-07-29T09:46:20;1.77;;;1.60;;
33006;SDS011;19361;51.598;7.650;2023-07-29T09:51:45;2.00;;;1.80;;
33006;SDS011;19361;51.598;7.650;2023-07-29T09:57:06;3.33;;;1.48;;
33006;SDS011;19361;51.598;7.650;2023-07-29T10:02:28;1.73;;;1.30;;
33006;SDS011;19361;51.598;7.650;2023-07-29T10:07:50;1.40;;;1.30;;
33006;SDS011;19361;51.598;7.650;2023-07-29T10:13:12;1.02;;;1.02;;
33006;SDS011;19361;51.598;7.650;2023-07-29T10:18:33;3.83;;;1.23;;
33006;SDS011;19361;51.598;7.650;2023-07-29T10:23:54;4.22;;;1.20;;
33006;SDS011;19361;51.598;7.650;2023-07-29T10:29:19;1.48;;;1.40;;
33006;SDS011;19361;51.598;7.650;2023-07-29T10:34:43;1.40;;;1.30;;
33006;SDS011;19361;51.598;7.650;2023-07-29T10:40:09;4.18;;;1.50;;
33006;SDS011;19361;51.598;7.650;2023-07-29T10:45:38;1.43;;;1.37;;
33006;SDS011;19361;51.598;7.650;2023-07-29T10:56:56;1.42;;;1.38;;
33006;SDS011;19361;51.598;7.650;2023-07-29T11:02:19;1.23;;;1.13;;
33006;SDS011;19361;51.598;7.650;2023-07-29T11:07:44;1.50;;;1.40;;
33006;SDS011;19361;51.598;7.650;2023-07-29T11:13:07;2.27;;;1.23;;
33006;SDS011;19361;51.598;7.650;2023-07-29T11:18:33;2.47;;;1.33;;
33006;SDS011;19361;51.598;7.650;2023-07-29T11:23:55;2.78;;;1.60;;
33006;SDS011;19361;51.598;7.650;2023-07-29T11:29:18;1.27;;;1.17;;
33006;SDS011;19361;51.598;7.650;2023-07-29T11:34:40;1.00;;;1.00;;
33006;SDS011;19361;51.598;7.650;2023-07-29T11:40:02;1.00;;;1.00;;
33006;SDS011;19361;51.598;7.650;2023-07-29T11:45:24;1.20;;;1.13;;
33006;SDS011;19361;51.598;7.650;2023-07-29T11:50:45;2.03;;;1.00;;
33006;SDS011;19361;51.598;7.650;2023-07-29T11:56:06;1.67;;;1.25;;
33006;SDS011;19361;51.598;7.650;2023-07-29T12:01:28;1.25;;;1.10;;
33006;SDS011;19361;51.598;7.650;2023-07-29T12:06:49;1.50;;;1.40;;
33006;SDS011;19361;51.598;7.650;2023-07-29T12:12:11;1.42;;;1.23;;
33006;SDS011;19361;51.598;7.650;2023-07-29T12:17:32;1.25;;;1.15;;
33006;SDS011;19361;51.598;7.650;2023-07-29T12:23:01;1.77;;;1.67;;
33006;SDS011;19361;51.598;7.650;2023-07-29T12:28:22;1.60;;;1.50;;
33006;SDS011;19361;51.598;7.650;2023-07-29T12:33:44;1.60;;;1.50;;
33006;SDS011;19361;51.598;7.650;2023-07-29T12:39:05;1.70;;;1.60;;
33006;SDS011;19361;51.598;7.650;2023-07-29T12:44:30;1.30;;;1.30;;
33006;SDS011;19361;51.598;7.650;2023-07-29T12:49:54;1.50;;;1.40;;
33006;SDS011;19361;51.598;7.650;2023-07-29T12:55:15;1.40;;;1.30;;
33006;SDS011;19361;51.598;7.650;2023-07-29T13:00:36;3.80;;;1.40;;
33006;SDS011;19361;51.598;7.650;2023-07-29T13:05:58;1.30;;;1.20;;
33006;SDS011;19361;51.598;7.650;2023-07-29T13:11:19;2.13;;;1.58;;
33006;SDS011;19361;51.598;7.650;2023-07-29T13:16:41;2.30;;;2.13;;
33006;SDS011;19361;51.598;7.650;2023-07-29T13:22:02;1.95;;;1.30;;
33006;SDS011;19361;51.598;7.650;2023-07-29T13:27:23;1.50;;;1.40;;
33006;SDS011;19361;51.598;7.650;2023-07-29T13:32:45;1.40;;;1.30;;
33006;SDS011;19361;51.598;7.650;2023-07-29T13:38:06;3.20;;;1.48;;
33006;SDS011;19361;51.598;7.650;2023-07-29T13:43:27;1.67;;;1.50;;
33006;SDS011;19361;51.598;7.650;2023-07-29T13:48:48;1.60;;;1.50;;
33006;SDS011;19361;51.598;7.650;2023-07-29T13:54:10;1.77;;;1.67;;
33006;SDS011;19361;51.598;7.650;2023-07-29T13:59:31;2.03;;;1.80;;
33006;SDS011;19361;51.598;7.650;2023-07-29T14:04:52;1.50;;;1.40;;
33006;SDS011;19361;51.598;7.650;2023-07-29T14:10:13;4.22;;;1.30;;
33006;SDS011;19361;51.598;7.650;2023-07-29T14:15:34;1.52;;;1.42;;
33006;SDS011;19361;51.598;7.650;2023-07-29T14:20:56;1.63;;;1.52;;
33006;SDS011;19361;51.598;7.650;2023-07-29T14:26:17;2.25;;;1.88;;
33006;SDS011;19361;51.598;7.650;2023-07-29T14:31:38;1.60;;;1.45;;
33006;SDS011;19361;51.598;7.650;2023-07-29T14:36:59;6.43;;;1.70;;
33006;SDS011;19361;51.598;7.650;2023-07-29T14:42:20;1.58;;;1.48;;
33006;SDS011;19361;51.598;7.650;2023-07-29T14:47:41;3.33;;;1.67;;
33006;SDS011;19361;51.598;7.650;2023-07-29T14:53:02;3.42;;;2.28;;
33006;SDS011;19361;51.598;7.650;2023-07-29T14:58:23;4.75;;;2.58;;
33006;SDS011;19361;51.598;7.650;2023-07-29T15:03:45;7.10;;;2.03;;
33006;SDS011;19361;51.598;7.650;2023-07-29T15:09:06;1.35;;;1.02;;
33006;SDS011;19361;51.598;7.650;2023-07-29T15:14:28;3.25;;;1.30;;
33006;SDS011;19361;51.598;7.650;2023-07-29T15:19:49;3.17;;;1.60;;
33006;SDS011;19361;51.598;7.650;2023-07-29T15:25:10;2.83;;;1.17;;
33006;SDS011;19361;51.598;7.650;2023-07-29T15:30:32;1.70;;;1.05;;
33006;SDS011;19361;51.598;7.650;2023-07-29T15:35:56;2.60;;;1.10;;
33006;SDS011;19361;51.598;7.650;2023-07-29T15:41:17;4.40;;;1.70;;
33006;SDS011;19361;51.598;7.650;2023-07-29T15:46:38;2.60;;;1.80;;
33006;SDS011;19361;51.598;7.650;2023-07-29T15:52:00;1.75;;;1.40;;
33006;SDS011;19361;51.598;7.650;2023-07-29T15:57:21;3.35;;;1.98;;
33006;SDS011;19361;51.598;7.650;2023-07-29T16:02:42;2.53;;;2.22;;
33006;SDS011;19361;51.598;7.650;2023-07-29T16:08:03;3.08;;;1.38;;
33006;SDS011;19361;51.598;7.650;2023-07-29T16:13:25;1.95;;;1.38;;
33006;SDS011;19361;51.598;7.650;2023-07-29T16:18:47;3.60;;;1.17;;
33006;SDS011;19361;51.598;7.650;2023-07-29T16:24:08;1.20;;;1.10;;
33006;SDS011;19361;51.598;7.650;2023-07-29T16:29:29;1.02;;;1.02;;
33006;SDS011;19361;51.598;7.650;2023-07-29T16:34:50;1.55;;;1.40;;
33006;SDS011;19361;51.598;7.650;2023-07-29T16:40:11;1.30;;;1.20;;
33006;SDS011;19361;51.598;7.650;2023-07-29T16:45:33;1.38;;;1.27;;
33006;SDS011;19361;51.598;7.650;2023-07-29T16:50:54;1.40;;;1.30;;
33006;SDS011;19361;51.598;7.650;2023-07-29T16:56:15;1.30;;;1.20;;
33006;SDS011;19361;51.598;7.650;2023-07-29T17:01:36;0.82;;;0.82;;
33006;SDS011;19361;51.598;7.650;2023-07-29T17:06:57;1.17;;;1.10;;
33006;SDS011;19361;51.598;7.650;2023-07-29T17:12:18;2.35;;;1.45;;
33006;SDS011;19361;51.598;7.650;2023-07-29T17:17:39;1.40;;;1.10;;
33006;SDS011;19361;51.598;7.650;2023-07-29T17:23:00;1.77;;;1.40;;
33006;SDS011;19361;51.598;7.650;2023-07-29T17:28:21;1.88;;;1.25;;
33006;SDS011;19361;51.598;7.650;2023-07-29T17:33:42;1.98;;;1.45;;
33006;SDS011;19361;51.598;7.650;2023-07-29T17:39:04;1.80;;;1.52;;
33006;SDS011;19361;51.598;7.650;2023-07-29T17:44:26;2.33;;;1.60;;
33006;SDS011;19361;51.598;7.650;2023-07-29T17:49:48;2.33;;;1.65;;
33006;SDS011;19361;51.598;7.650;2023-07-29T17:55:09;2.35;;;1.77;;
33006;SDS011;19361;51.598;7.650;2023-07-29T18:00:30;2.22;;;1.50;;
33006;SDS011;19361;51.598;7.650;2023-07-29T18:05:52;2.13;;;1.70;;
33006;SDS011;19361;51.598;7.650;2023-07-29T18:11:13;2.05;;;1.85;;
33006;SDS011;19361;51.598;7.650;2023-07-29T18:16:34;2.97;;;2.15;;
33006;SDS011;19361;51.598;7.650;2023-07-29T18:21:58;2.35;;;2.05;;
33006;SDS011;19361;51.598;7.650;2023-07-29T18:27:19;5.43;;;3.60;;
33006;SDS011;19361;51.598;7.650;2023-07-29T18:32:44;8.52;;;4.03;;
33006;SDS011;19361;51.598;7.650;2023-07-29T18:38:05;6.03;;;3.65;;
33006;SDS011;19361;51.598;7.650;2023-07-29T18:43:26;3.08;;;2.80;;
33006;SDS011;19361;51.598;7.650;2023-07-29T18:48:47;4.07;;;3.00;;
33006;SDS011;19361;51.598;7.650;2023-07-29T18:54:08;3.95;;;2.70;;
33006;SDS011;19361;51.598;7.650;2023-07-29T18:59:29;11.20;;;5.22;;
33006;SDS011;19361;51.598;7.650;2023-07-29T19:04:51;14.38;;;6.78;;
33006;SDS011;19361;51.598;7.650;2023-07-29T19:10:12;8.30;;;4.97;;
33006;SDS011;19361;51.598;7.650;2023-07-29T19:15:33;8.60;;;3.40;;
33006;SDS011;19361;51.598;7.650;2023-07-29T19:20:54;2.80;;;2.30;;
33006;SDS011;19361;51.598;7.650;2023-07-29T19:26:15;2.60;;;2.30;;
33006;SDS011;19361;51.598;7.650;2023-07-29T19:31:41;2.53;;;2.33;;
33006;SDS011;19361;51.598;7.650;2023-07-29T19:37:05;2.83;;;2.50;;
33006;SDS011;19361;51.598;7.650;2023-07-29T19:42:27;3.00;;;2.50;;
33006;SDS011;19361;51.598;7.650;2023-07-29T19:47:48;8.38;;;3.20;;
33006;SDS011;19361;51.598;7.650;2023-07-29T19:53:09;2.30;;;2.00;;
33006;SDS011;19361;51.598;7.650;2023-07-29T19:58:30;3.30;;;2.30;;
33006;SDS011;19361;51.598;7.650;2023-07-29T20:03:51;2.28;;;1.75;;
33006;SDS011;19361;51.598;7.650;2023-07-29T20:09:13;1.98;;;1.77;;
33006;SDS011;19361;51.598;7.650;2023-07-29T20:14:34;1.95;;;1.85;;
33006;SDS011;19361;51.598;7.650;2023-07-29T20:19:55;1.52;;;1.42;;
33006;SDS011;19361;51.598;7.650;2023-07-29T20:25:16;2.53;;;1.88;;
33006;SDS011;19361;51.598;7.650;2023-07-29T20:30:37;1.60;;;1.50;;
33006;SDS011;19361;51.598;7.650;2023-07-29T20:35:59;2.63;;;1.50;;
33006;SDS011;19361;51.598;7.650;2023-07-29T20:41:20;2.53;;;1.60;;
33006;SDS011;19361;51.598;7.650;2023-07-29T20:46:42;3.28;;;1.77;;
33006;SDS011;19361;51.598;7.650;2023-07-29T20:52:03;2.80;;;2.00;;
33006;SDS011;19361;51.598;7.650;2023-07-29T20:57:25;2.00;;;1.80;;
33006;SDS011;19361;51.598;7.650;2023-07-29T21:02:46;7.60;;;1.90;;
33006;SDS011;19361;51.598;7.650;2023-07-29T21:08:07;1.92;;;1.73;;
33006;SDS011;19361;51.598;7.650;2023-07-29T21:13:28;3.17;;;1.80;;
33006;SDS011;19361;51.598;7.650;2023-07-29T21:18:49;2.75;;;1.67;;
33006;SDS011;19361;51.598;7.650;2023-07-29T21:24:10;2.60;;;2.20;;
33006;SDS011;19361;51.598;7.650;2023-07-29T21:29:32;1.90;;;1.77;;
33006;SDS011;19361;51.598;7.650;2023-07-29T21:34:53;1.85;;;1.75;;
33006;SDS011;19361;51.598;7.650;2023-07-29T21:40:14;3.40;;;1.77;;
33006;SDS011;19361;51.598;7.650;2023-07-29T21:45:35;2.25;;;2.00;;
33006;SDS011;19361;51.598;7.650;2023-07-29T21:50:56;2.10;;;2.00;;
33006;SDS011;19361;51.598;7.650;2023-07-29T21:56:17;2.40;;;2.20;;
33006;SDS011;19361;51.598;7.650;2023-07-29T22:01:38;3.38;;;1.90;;
33006;SDS011;19361;51.598;7.650;2023-07-29T22:06:59;2.63;;;2.42;;
33006;SDS011;19361;51.598;7.650;2023-07-29T22:12:20;3.65;;;3.20;;
33006;SDS011;19361;51.598;7.650;2023-07-29T22:17:42;4.25;;;3.60;;
33006;SDS011;19361;51.598;7.650;2023-07-29T22:23:03;5.75;;;4.40;;
33006;SDS011;19361;51.598;7.650;2023-07-29T22:28:24;5.60;;;5.10;;
33006;SDS011;19361;51.598;7.650;2023-07-29T22:33:50;5.70;;;5.03;;
33006;SDS011;19361;51.598;7.650;2023-07-29T22:39:11;6.55;;;4.75;;
33006;SDS011;19361;51.598;7.650;2023-07-29T22:44:32;4.00;;;3.70;;
33006;SDS011;19361;51.598;7.650;2023-07-29T22:49:54;4.03;;;3.22;;
33006;SDS011;19361;51.598;7.650;2023-07-29T22:55:15;2.97;;;2.58;;
33006;SDS011;19361;51.598;7.650;2023-07-29T23:00:36;3.08;;;2.70;;
33006;SDS011;19361;51.598;7.650;2023-07-29T23:05:57;2.90;;;2.67;;
33006;SDS011;19361;51.598;7.650;2023-07-29T23:11:18;4.57;;;2.83;;
33006;SDS011;19361;51.598;7.650;2023-07-29T23:16:39;4.13;;;2.60;;
33006;SDS011;19361;51.598;7.650;2023-07-29T23:22:00;3.38;;;2.70;;
33006;SDS011;19361;51.598;7.650;2023-07-29T23:27:21;3.85;;;2.67;;
33006;SDS011;19361;51.598;7.650;2023-07-29T23:32:42;3.60;;;2.78;;
33006;SDS011;19361;51.598;7.650;2023-07-29T23:38:04;3.65;;;2.55;;
33006;SDS011;19361;51.598;7.650;2023-07-29T23:43:25;3.28;;;2.60;;
33006;SDS011;19361;51.598;7.650;2023-07-29T23:48:46;7.10;;;3.28;;
33006;SDS011;19361;51.598;7.650;2023-07-29T23:54:07;9.60;;;3.30;;
33006;SDS011;19361;51.598;7.650;2023-07-29T23:59:28;4.93;;;2.55;;
